createdAt,value
2019-05-10T00:02:01.606Z,11.00
2019-05-10T00:04:49.215Z,11.10
2019-05-10T00:07:37.232Z,11.10
2019-05-10T00:10:06.727Z,11.00
2019-05-10T00:13:02.123Z,10.90
2019-05-10T00:15:35.492Z,11.10
2019-05-10T00:18:05.351Z,11.20
2019-05-10T00:20:35.382Z,11.20
2019-05-10T00:23:05.493Z,11.10
2019-05-10T00:25:35.204Z,11.10
2019-05-10T00:28:05.536Z,11.10
2019-05-10T00:30:35.171Z,11.20
2019-05-10T00:33:04.947Z,11.20
2019-05-10T00:35:34.803Z,11.20
2019-05-10T00:38:04.875Z,11.20
2019-05-10T00:40:34.934Z,11.30
2019-05-10T00:43:04.738Z,11.20
2019-05-10T00:45:34.574Z,11.20
2019-05-10T00:48:05.129Z,11.20
2019-05-10T00:50:35.178Z,11.20
2019-05-10T00:53:05.003Z,11.10
2019-05-10T00:55:44.218Z,11.10
2019-05-10T00:58:13.942Z,11.20
2019-05-10T01:00:43.757Z,11.20
2019-05-10T01:03:13.407Z,11.20
2019-05-10T01:05:43.290Z,11.20
2019-05-10T01:08:12.996Z,11.30
2019-05-10T01:10:42.749Z,11.30
2019-05-10T01:13:12.482Z,11.30
2019-05-10T01:15:42.285Z,11.40
2019-05-10T01:18:12.059Z,11.40
2019-05-10T01:20:41.945Z,11.40
2019-05-10T01:23:12.167Z,11.40
2019-05-10T01:25:42.798Z,11.40
2019-05-10T01:28:12.619Z,11.30
2019-05-10T01:30:42.546Z,11.30
2019-05-10T01:33:12.570Z,11.30
2019-05-10T01:35:48.414Z,11.30
2019-05-10T01:38:18.186Z,11.30
2019-05-10T01:40:47.953Z,11.30
2019-05-10T01:43:17.813Z,11.30
2019-05-10T01:45:47.655Z,11.30
2019-05-10T01:48:17.698Z,11.30
2019-05-10T01:50:47.589Z,11.30
2019-05-10T01:53:17.953Z,11.30
2019-05-10T01:55:51.924Z,11.20
2019-05-10T01:58:19.835Z,11.30
2019-05-10T02:00:49.955Z,11.20
2019-05-10T02:03:19.813Z,11.20
2019-05-10T02:05:49.884Z,11.20
2019-05-10T02:08:19.967Z,11.20
2019-05-10T02:10:49.795Z,11.20
2019-05-10T02:13:19.842Z,11.20
2019-05-10T02:15:49.724Z,11.10
2019-05-10T02:18:20.069Z,11.20
2019-05-10T02:20:49.922Z,11.20
2019-05-10T02:23:20.033Z,11.20
2019-05-10T02:25:49.958Z,11.20
2019-05-10T02:28:20.387Z,11.20
2019-05-10T02:30:50.467Z,11.20
2019-05-10T02:33:21.103Z,11.20
2019-05-10T02:35:51.227Z,11.20
2019-05-10T02:38:21.082Z,11.20
2019-05-10T02:40:50.858Z,11.10
2019-05-10T02:43:21.031Z,11.10
2019-05-10T02:45:51.190Z,11.10
2019-05-10T02:48:21.455Z,11.00
2019-05-10T02:50:51.596Z,10.90
2019-05-10T02:53:21.418Z,10.90
2019-05-10T02:55:52.123Z,10.80
2019-05-10T02:58:22.074Z,10.80
2019-05-10T03:00:54.570Z,10.80
2019-05-10T03:03:26.814Z,10.90
2019-05-10T03:05:57.634Z,10.90
2019-05-10T03:08:30.966Z,10.90
2019-05-10T03:11:00.790Z,11.00
2019-05-10T03:13:31.435Z,11.00
2019-05-10T03:16:05.400Z,11.00
2019-05-10T03:18:35.231Z,11.00
2019-05-10T03:21:08.144Z,11.10
2019-05-10T03:23:38.280Z,11.00
2019-05-10T03:26:08.125Z,11.10
2019-05-10T03:28:37.971Z,11.00
2019-05-10T03:31:07.824Z,11.00
2019-05-10T03:33:37.711Z,11.00
2019-05-10T03:36:07.742Z,11.00
2019-05-10T03:38:37.889Z,11.00
2019-05-10T03:41:07.688Z,11.00
2019-05-10T03:43:37.775Z,11.00
2019-05-10T03:46:08.169Z,11.00
2019-05-10T03:48:37.896Z,11.00
2019-05-10T03:51:07.630Z,11.00
2019-05-10T03:53:37.771Z,11.00
2019-05-10T03:56:07.837Z,11.00
2019-05-10T03:58:37.572Z,11.00
2019-05-10T04:01:07.716Z,11.00
2019-05-10T04:03:37.774Z,11.00
2019-05-10T04:06:07.848Z,11.00
2019-05-10T04:08:37.930Z,11.00
2019-05-10T04:11:08.055Z,10.90
2019-05-10T04:13:38.123Z,10.90
2019-05-10T04:16:08.135Z,10.90
2019-05-10T04:18:38.330Z,10.90
2019-05-10T04:21:08.410Z,10.90
2019-05-10T04:23:38.725Z,10.90
2019-05-10T04:26:08.862Z,10.90
2019-05-10T04:28:39.137Z,10.90
2019-05-10T04:31:09.213Z,10.90
2019-05-10T04:33:39.196Z,10.80
2019-05-10T04:36:12.611Z,10.80
2019-05-10T04:38:40.853Z,10.80
2019-05-10T04:41:11.023Z,10.80
2019-05-10T04:43:40.843Z,10.80
2019-05-10T04:46:10.698Z,10.80
2019-05-10T04:48:40.511Z,10.70
2019-05-10T04:51:10.393Z,10.60
2019-05-10T04:53:40.285Z,10.60
2019-05-10T04:56:10.340Z,10.60
2019-05-10T04:58:40.588Z,10.60
2019-05-10T05:01:10.430Z,10.60
2019-05-10T05:03:40.519Z,10.60
2019-05-10T05:06:10.714Z,10.60
2019-05-10T05:08:40.562Z,10.70
2019-05-10T05:11:10.864Z,10.70
2019-05-10T05:13:41.209Z,10.80
2019-05-10T05:16:11.583Z,10.90
2019-05-10T05:18:41.430Z,10.90
2019-05-10T05:21:11.471Z,10.90
2019-05-10T05:23:41.570Z,11.00
2019-05-10T05:26:11.622Z,11.00
2019-05-10T05:28:41.714Z,11.00
2019-05-10T05:31:11.618Z,11.00
2019-05-10T05:33:42.098Z,11.00
2019-05-10T05:36:11.981Z,11.00
2019-05-10T05:38:46.947Z,11.00
2019-05-10T05:41:14.240Z,11.00
2019-05-10T05:43:46.460Z,11.00
2019-05-10T05:46:16.661Z,11.00
2019-05-10T05:48:46.482Z,11.00
2019-05-10T05:51:16.349Z,10.90
2019-05-10T05:53:46.170Z,10.80
2019-05-10T05:56:16.156Z,10.80
2019-05-10T05:58:47.198Z,10.70
2019-05-10T06:01:26.515Z,10.70
2019-05-10T06:03:49.357Z,10.60
2019-05-10T06:06:23.608Z,10.50
2019-05-10T06:08:54.564Z,10.50
2019-05-10T06:11:22.927Z,10.40
2019-05-10T06:13:52.734Z,10.40
2019-05-10T06:16:22.507Z,10.50
2019-05-10T06:18:52.931Z,10.60
2019-05-10T06:21:26.469Z,10.80
2019-05-10T06:23:54.830Z,11.10
2019-05-10T06:26:28.596Z,11.20
2019-05-10T06:29:03.349Z,11.30
2019-05-10T06:31:28.303Z,11.20
2019-05-10T06:33:58.350Z,11.20
2019-05-10T06:36:28.107Z,11.20
2019-05-10T06:41:49.975Z,11.30
2019-05-10T06:44:25.106Z,11.50
2019-05-10T06:46:52.001Z,11.40
2019-05-10T06:49:21.835Z,11.40
2019-05-10T06:51:51.589Z,11.50
2019-05-10T06:54:21.379Z,11.60
2019-05-10T06:56:51.362Z,11.70
2019-05-10T06:59:24.856Z,11.90
2019-05-10T07:01:53.194Z,12.60
2019-05-10T07:04:23.563Z,12.80
2019-05-10T07:06:53.648Z,13.20
2019-05-10T07:09:23.995Z,13.40
2019-05-10T07:11:54.032Z,13.70
2019-05-10T07:14:27.150Z,14.00
2019-05-10T07:16:56.515Z,14.10
2019-05-10T07:19:28.909Z,14.20
2019-05-10T07:21:59.103Z,13.80
2019-05-10T07:24:28.950Z,14.10
2019-05-10T07:27:02.372Z,14.00
2019-05-10T07:29:41.865Z,13.70
2019-05-10T07:32:02.683Z,15.40
2019-05-10T07:34:33.232Z,18.40
2019-05-10T07:37:03.631Z,19.90
2019-05-10T07:39:33.559Z,22.00
2019-05-10T07:42:06.677Z,20.60
2019-05-10T07:44:35.180Z,21.30
2019-05-10T07:47:05.024Z,19.20
2019-05-10T07:49:35.137Z,19.80
2019-05-10T07:52:06.891Z,20.80
2019-05-10T07:54:44.194Z,20.80
2019-05-10T07:57:09.192Z,19.00
2019-05-10T07:59:50.297Z,18.30
2019-05-10T08:02:12.887Z,16.90
2019-05-10T08:04:42.312Z,16.70
2019-05-10T08:07:12.431Z,16.10
2019-05-10T08:09:45.291Z,15.80
2019-05-10T08:12:14.703Z,15.60
2019-05-10T08:14:49.267Z,15.20
2019-05-10T08:17:19.062Z,15.50
2019-05-10T08:19:49.026Z,15.10
2019-05-10T08:22:19.482Z,14.50
2019-05-10T08:24:52.700Z,14.50
2019-05-10T08:27:22.973Z,14.50
2019-05-10T08:30:15.740Z,14.90
2019-05-10T08:32:29.792Z,15.20
2019-05-10T08:34:56.194Z,15.90
2019-05-10T08:37:31.013Z,16.60
2019-05-10T08:39:58.245Z,15.90
2019-05-10T08:42:43.473Z,15.80
2019-05-10T08:45:05.486Z,15.40
2019-05-10T08:47:32.518Z,14.80
2019-05-10T08:50:18.457Z,14.80
2019-05-10T08:52:34.112Z,14.20
2019-05-10T08:55:04.162Z,14.10
2019-05-10T09:00:41.662Z,14.10
2019-05-10T09:02:54.770Z,14.40
2019-05-10T09:05:29.153Z,14.30
2019-05-10T09:07:56.154Z,14.30
2019-05-10T09:10:26.810Z,14.50
2019-05-10T09:12:58.167Z,16.10
2019-05-10T09:15:28.494Z,17.10
2019-05-10T09:18:04.384Z,16.50
2019-05-10T09:20:31.822Z,16.00
2019-05-10T09:23:02.573Z,16.90
2019-05-10T09:25:33.849Z,17.50
2019-05-10T09:28:11.556Z,18.10
2019-05-10T09:30:36.853Z,17.70
2019-05-10T09:33:09.178Z,17.80
2019-05-10T09:35:43.911Z,17.70
2019-05-10T09:38:12.472Z,17.30
2019-05-10T09:40:51.132Z,17.80
2019-05-10T09:43:15.098Z,18.30
2019-05-10T09:45:45.095Z,19.40
2019-05-10T09:48:15.115Z,20.40
2019-05-10T09:50:47.121Z,19.30
2019-05-10T09:53:23.571Z,18.40
2019-05-10T09:55:55.361Z,17.50
2019-05-10T09:58:22.262Z,17.30
2019-05-10T10:00:52.735Z,16.30
2019-05-10T10:03:22.967Z,16.10
2019-05-10T10:05:55.250Z,17.10
2019-05-10T10:08:24.898Z,17.90
2019-05-10T10:11:01.364Z,17.60
2019-05-10T10:13:39.285Z,17.70
2019-05-10T10:15:58.254Z,17.50
2019-05-10T10:18:28.512Z,17.30
2019-05-10T10:20:58.686Z,17.90
2019-05-10T10:23:30.665Z,17.20
2019-05-10T10:26:01.615Z,16.90
2019-05-10T10:28:31.479Z,17.40
2019-05-10T10:31:05.159Z,18.30
2019-05-10T10:33:33.969Z,17.50
2019-05-10T10:36:07.392Z,17.40
2019-05-10T10:38:44.738Z,17.10
2019-05-10T10:41:08.349Z,17.00
2019-05-10T10:43:38.634Z,17.30
2019-05-10T10:46:12.442Z,17.60
2019-05-10T10:48:43.748Z,17.70
2019-05-10T10:51:12.541Z,17.70
2019-05-10T10:53:42.878Z,17.40
2019-05-10T10:56:13.243Z,17.30
2019-05-10T10:58:43.266Z,17.50
2019-05-10T11:01:21.277Z,17.50
2019-05-10T11:03:48.564Z,17.80
2019-05-10T11:06:17.004Z,18.30
2019-05-10T11:08:47.174Z,18.60
2019-05-10T11:11:17.079Z,18.30
2019-05-10T11:13:57.811Z,18.60
2019-05-10T11:16:20.646Z,18.60
2019-05-10T11:18:51.948Z,18.20
2019-05-10T11:21:28.649Z,18.00
2019-05-10T11:23:57.622Z,17.20
2019-05-10T11:26:32.856Z,17.00
2019-05-10T11:29:01.280Z,16.30
2019-05-10T11:31:31.645Z,15.90
2019-05-10T11:34:06.163Z,16.00
2019-05-10T11:36:40.383Z,16.30
2019-05-10T11:39:23.214Z,16.70
2019-05-10T11:41:39.737Z,17.30
2019-05-10T11:44:12.030Z,18.40
2019-05-10T11:46:42.136Z,19.20
2019-05-10T11:49:12.532Z,19.50
2019-05-10T11:51:42.374Z,18.90
2019-05-10T11:54:12.276Z,17.80
2019-05-10T11:56:42.151Z,17.70
2019-05-10T11:59:16.313Z,17.50
2019-05-10T12:01:43.614Z,17.10
2019-05-10T12:04:23.858Z,17.20
2019-05-10T12:06:49.997Z,17.70
2019-05-10T12:09:17.374Z,17.80
2019-05-10T12:11:56.821Z,17.30
2019-05-10T12:14:21.869Z,17.70
2019-05-10T12:16:54.492Z,17.50
2019-05-10T12:19:22.859Z,17.80
2019-05-10T12:21:56.110Z,17.90
2019-05-10T12:24:38.774Z,18.20
2019-05-10T12:29:27.826Z,20.10
2019-05-10T12:31:57.690Z,20.70
2019-05-10T12:34:30.995Z,19.40
2019-05-10T12:37:03.864Z,19.00
2019-05-10T12:39:33.059Z,20.20
2019-05-10T12:42:03.251Z,21.10
2019-05-10T12:44:38.889Z,21.50
2019-05-10T12:47:06.687Z,20.60
2019-05-10T12:49:36.673Z,20.10
2019-05-10T12:52:09.162Z,19.80
2019-05-10T12:54:41.404Z,18.90
2019-05-10T12:57:11.005Z,18.40
2019-05-10T12:59:40.765Z,18.70
2019-05-10T13:02:12.997Z,17.70
2019-05-10T13:04:47.071Z,17.70
2019-05-10T13:07:13.870Z,17.90
2019-05-10T13:09:43.928Z,17.90
2019-05-10T13:12:13.782Z,17.70
2019-05-10T13:14:46.109Z,18.00
2019-05-10T13:17:17.135Z,18.50
2019-05-10T13:19:47.292Z,18.00
2019-05-10T13:22:17.131Z,17.80
2019-05-10T13:25:06.090Z,17.80
2019-05-10T13:27:35.946Z,17.80
2019-05-10T13:30:06.238Z,17.70
2019-05-10T13:32:36.172Z,17.40
2019-05-10T13:35:06.770Z,17.40
2019-05-10T13:37:37.208Z,17.70
2019-05-10T13:40:08.241Z,17.80
2019-05-10T13:42:43.181Z,17.90
2019-05-10T13:45:10.849Z,17.60
2019-05-10T13:47:40.662Z,17.30
2019-05-10T13:50:10.954Z,17.20
2019-05-10T13:52:41.405Z,17.30
2019-05-10T13:55:11.864Z,17.00
2019-05-10T13:57:42.266Z,17.00
2019-05-10T14:00:12.762Z,17.30
2019-05-10T14:02:42.665Z,17.60
2019-05-10T14:05:17.556Z,17.10
2019-05-10T14:07:51.190Z,16.80
2019-05-10T14:10:18.220Z,16.70
2019-05-10T14:12:47.847Z,17.00
2019-05-10T14:15:18.179Z,17.30
2019-05-10T14:17:48.620Z,17.70
2019-05-10T14:20:25.302Z,17.90
2019-05-10T14:22:55.897Z,17.80
2019-05-10T14:25:23.416Z,17.50
2019-05-10T14:27:53.532Z,17.40
2019-05-10T14:30:23.552Z,17.00
2019-05-10T14:32:53.739Z,17.00
2019-05-10T14:35:24.527Z,16.90
2019-05-10T14:38:07.256Z,16.80
2019-05-10T14:40:28.268Z,16.70
2019-05-10T14:42:59.773Z,17.10
2019-05-10T14:45:30.535Z,17.00
2019-05-10T14:48:00.359Z,17.20
2019-05-10T14:50:30.219Z,17.30
2019-05-10T14:53:00.122Z,17.10
2019-05-10T14:55:34.417Z,17.10
2019-05-10T14:58:01.776Z,17.00
2019-05-10T15:00:31.538Z,17.00
2019-05-10T15:03:02.089Z,17.00
2019-05-10T15:05:36.245Z,17.00
2019-05-10T15:08:04.348Z,17.00
2019-05-10T15:10:39.300Z,17.00
2019-05-10T15:13:06.248Z,16.80
2019-05-10T15:15:37.124Z,17.00
2019-05-10T15:18:07.955Z,17.20
2019-05-10T15:20:37.843Z,17.40
2019-05-10T15:23:07.730Z,16.80
2019-05-10T15:25:37.580Z,16.50
2019-05-10T15:28:07.435Z,16.50
2019-05-10T15:30:39.404Z,16.70
2019-05-10T15:33:08.883Z,16.70
2019-05-10T15:35:38.729Z,16.50
2019-05-10T15:38:08.470Z,16.60
2019-05-10T15:40:38.860Z,16.60
2019-05-10T15:43:10.506Z,16.90
2019-05-10T15:45:45.903Z,16.60
2019-05-10T15:48:16.007Z,16.40
2019-05-10T15:50:45.806Z,16.20
2019-05-10T15:53:19.538Z,16.30
2019-05-10T15:55:47.741Z,16.40
2019-05-10T15:58:17.684Z,16.50
2019-05-10T16:00:47.643Z,16.40
2019-05-10T16:03:18.238Z,16.50
2019-05-10T16:05:59.838Z,16.70
2019-05-10T16:08:23.890Z,16.90
2019-05-10T16:10:51.452Z,17.30
2019-05-10T16:13:24.928Z,17.10
2019-05-10T16:15:57.644Z,16.90
2019-05-10T16:18:25.655Z,16.50
2019-05-10T16:20:55.851Z,16.60
2019-05-10T16:23:25.931Z,16.60
2019-05-10T16:25:56.312Z,16.60
2019-05-10T16:28:26.354Z,16.60
2019-05-10T16:30:56.482Z,16.70
2019-05-10T16:33:26.318Z,16.90
2019-05-10T16:35:56.419Z,16.90
2019-05-10T16:38:26.347Z,16.70
2019-05-10T16:40:59.123Z,16.70
2019-05-10T16:43:27.687Z,16.80
2019-05-10T16:45:57.942Z,16.80
2019-05-10T16:48:28.677Z,16.90
2019-05-10T16:51:03.478Z,17.00
2019-05-10T16:53:31.483Z,17.00
2019-05-10T16:56:01.584Z,17.10
2019-05-10T16:58:31.352Z,17.00
2019-05-10T17:01:01.231Z,16.80
2019-05-10T17:03:31.043Z,16.80
2019-05-10T17:06:03.983Z,16.90
2019-05-10T17:08:36.905Z,17.00
2019-05-10T17:11:09.462Z,16.90
2019-05-10T17:13:36.279Z,17.10
2019-05-10T17:16:11.526Z,17.20
2019-05-10T17:18:39.216Z,17.00
2019-05-10T17:21:09.320Z,16.80
2019-05-10T17:23:41.470Z,16.50
2019-05-10T17:26:11.523Z,16.30
2019-05-10T17:28:41.611Z,16.30
2019-05-10T17:31:11.468Z,16.40
2019-05-10T17:33:43.221Z,16.40
2019-05-10T17:36:31.938Z,16.50
2019-05-10T17:39:01.770Z,16.40
2019-05-10T17:41:31.887Z,16.30
2019-05-10T17:44:02.216Z,16.20
2019-05-10T17:46:31.955Z,16.10
2019-05-10T17:49:01.834Z,16.20
2019-05-10T17:51:31.698Z,16.20
2019-05-10T17:54:03.607Z,16.20
2019-05-10T17:56:38.995Z,16.20
2019-05-10T17:59:05.974Z,16.10
2019-05-10T18:01:36.261Z,16.00
2019-05-10T18:04:06.361Z,16.00
2019-05-10T18:06:36.102Z,15.90
2019-05-10T18:09:07.143Z,15.80
2019-05-10T18:11:42.732Z,15.70
2019-05-10T18:14:12.581Z,15.70
2019-05-10T18:16:41.833Z,15.70
2019-05-10T18:19:12.697Z,15.70
2019-05-10T18:21:42.370Z,15.60
2019-05-10T18:24:12.210Z,15.50
2019-05-10T18:26:42.066Z,15.60
2019-05-10T18:29:11.908Z,15.50
2019-05-10T18:31:41.733Z,15.40
2019-05-10T18:34:11.619Z,15.30
2019-05-10T18:36:56.198Z,15.20
2019-05-10T18:39:15.477Z,15.10
2019-05-10T18:41:46.561Z,15.00
2019-05-10T18:44:18.194Z,14.90
2019-05-10T18:46:48.436Z,14.80
2019-05-10T18:49:18.583Z,14.70
2019-05-10T18:51:48.963Z,14.50
2019-05-10T18:54:19.059Z,14.40
2019-05-10T18:56:49.137Z,14.20
2019-05-10T18:59:18.988Z,14.10
2019-05-10T19:01:49.189Z,14.00
2019-05-10T19:04:18.928Z,13.80
2019-05-10T19:06:49.935Z,13.80
2019-05-10T19:09:20.150Z,13.60
2019-05-10T19:11:50.052Z,13.50
2019-05-10T19:14:23.916Z,13.40
2019-05-10T19:16:51.674Z,13.30
2019-05-10T19:19:21.574Z,13.30
2019-05-10T19:21:51.717Z,13.20
2019-05-10T19:24:24.320Z,13.20
2019-05-10T19:26:53.570Z,13.30
2019-05-10T19:29:27.232Z,13.40
2019-05-10T19:31:55.122Z,13.40
2019-05-10T19:34:25.469Z,13.50
2019-05-10T19:36:55.347Z,13.50
2019-05-10T19:39:25.253Z,13.50
2019-05-10T19:42:03.227Z,13.50
2019-05-10T19:44:26.930Z,13.50
2019-05-10T19:46:56.939Z,13.50
2019-05-10T19:49:26.770Z,13.50
2019-05-10T19:51:56.574Z,13.50
2019-05-10T19:54:26.591Z,13.50
2019-05-10T19:56:56.515Z,13.50
2019-05-10T19:59:26.620Z,13.50
2019-05-10T20:01:56.515Z,13.50
2019-05-10T20:04:26.626Z,13.40
2019-05-10T20:06:56.707Z,13.30
2019-05-10T20:09:26.906Z,13.20
2019-05-10T20:11:57.083Z,13.00
2019-05-10T20:14:26.974Z,12.90
2019-05-10T20:16:56.821Z,12.70
2019-05-10T20:19:26.587Z,12.50
2019-05-10T20:30:24.828Z,12.20
2019-05-10T20:32:55.053Z,12.20
2019-05-10T20:35:26.353Z,12.20
2019-05-10T20:38:01.791Z,12.20
2019-05-10T20:40:28.667Z,12.20
2019-05-10T20:42:58.809Z,12.10
2019-05-10T20:45:28.982Z,12.00
2019-05-10T20:47:59.060Z,12.10
2019-05-10T20:50:29.166Z,12.10
2019-05-10T20:52:59.294Z,12.10
2019-05-10T20:55:29.122Z,12.20
2019-05-10T20:57:58.863Z,12.20
2019-05-10T21:00:29.218Z,12.20
2019-05-10T21:02:59.207Z,12.20
2019-05-10T21:05:29.560Z,12.20
2019-05-10T21:07:59.363Z,12.20
2019-05-10T21:10:29.178Z,12.20
2019-05-10T21:12:59.003Z,12.10
2019-05-10T21:15:29.111Z,12.10
2019-05-10T21:17:58.922Z,12.10
2019-05-10T21:20:28.688Z,12.20
2019-05-10T21:22:59.071Z,12.20
2019-05-10T21:25:29.446Z,12.10
2019-05-10T21:27:59.451Z,12.10
2019-05-10T21:30:29.280Z,12.10
2019-05-10T21:32:59.368Z,12.10
2019-05-10T21:35:29.722Z,12.10
2019-05-10T21:37:59.806Z,12.10
2019-05-10T21:40:29.568Z,12.00
2019-05-10T21:42:59.701Z,12.00
2019-05-10T21:45:29.872Z,12.10
2019-05-10T21:47:59.864Z,12.10
2019-05-10T21:50:30.167Z,12.10
2019-05-10T21:53:00.378Z,12.10
2019-05-10T21:55:30.273Z,12.10
2019-05-10T21:57:59.995Z,12.10
2019-05-10T22:00:34.619Z,12.10
2019-05-10T22:03:05.166Z,12.10
2019-05-10T22:05:35.454Z,12.10
2019-05-10T22:08:05.406Z,12.10
2019-05-10T22:10:35.370Z,12.10
2019-05-10T22:13:05.598Z,12.10
2019-05-10T22:15:36.087Z,12.20
2019-05-10T22:18:06.279Z,12.00
2019-05-10T22:20:36.306Z,12.00
2019-05-10T22:23:06.168Z,12.10
2019-05-10T22:25:36.535Z,12.20
2019-05-10T22:28:06.958Z,12.30
2019-05-10T22:30:37.485Z,12.30
2019-05-10T22:33:08.062Z,12.30
2019-05-10T22:35:38.179Z,12.30
2019-05-10T22:38:08.105Z,12.30
2019-05-10T22:40:37.945Z,12.20
2019-05-10T22:43:08.191Z,12.30
2019-05-10T22:45:38.699Z,12.30
2019-05-10T22:48:08.537Z,12.30
2019-05-10T22:50:38.762Z,12.30
2019-05-10T22:53:09.070Z,12.30
2019-05-10T22:55:39.298Z,12.30
2019-05-10T22:58:09.250Z,12.40
2019-05-10T23:00:39.466Z,12.40
2019-05-10T23:03:09.407Z,12.40
2019-05-10T23:05:39.313Z,12.40
2019-05-10T23:08:09.132Z,12.50
2019-05-10T23:10:39.017Z,12.40
2019-05-10T23:13:08.881Z,12.40
2019-05-10T23:15:39.050Z,12.50
2019-05-10T23:18:08.988Z,12.70
2019-05-10T23:20:39.461Z,12.80
2019-05-10T23:23:09.484Z,12.80
2019-05-10T23:25:40.056Z,12.80
2019-05-10T23:28:10.239Z,12.90
2019-05-10T23:30:40.514Z,13.40
2019-05-10T23:33:10.452Z,13.50
2019-05-10T23:35:40.918Z,13.90
2019-05-10T23:38:11.139Z,14.00
2019-05-10T23:49:01.690Z,14.50
2019-05-10T23:51:31.820Z,14.40
2019-05-10T23:54:02.326Z,14.20
2019-05-10T23:56:32.257Z,13.80
2019-05-10T23:59:02.210Z,13.40
